Detalii statie UNIVERSITATEA AGRICOLA IASI [0000198B]

Toti senzorii

Date Temperatura solului [C]Precipitatii [mm]Voltaj baterie [mV]HC Air temperature [C]HC Relative humidity [%]Punctul de roua [C]
medieminmaxsumaultimamedieminmaxmediemediemin
2019-08-15 21:00:00 18.7 18.5 18.9 0 6962 16.68 16.53 16.78 97.66 16.1 16
2019-08-15 22:00:00 18.8 18.7 19 0 6962 16.23 15.55 16.55 99.4 16 15.5
2019-08-15 23:00:00 18.6 18.6 18.8 0 6952 14.38 13.94 15.33 100 14.3 13.9
2019-08-16 00:00:00 18.4 18.3 18.6 0 6952 13.53 12.96 14.23 100 13.4 12.9
2019-08-16 01:00:00 18.1 18 18.5 0 6932 12.77 12.42 13.15 100 12.7 12.4
2019-08-16 02:00:00 17.9 17.9 18.2 0 6922 12.2 11.72 12.61 100 12.1 11.7
2019-08-16 03:00:00 17.7 17.6 17.9 0 6922 12.06 11.69 12.41 100 12 11.6
2019-08-16 04:00:00 17.5 17.4 17.8 0 6904 12.5 12.18 12.74 100 12.4 12.1
2019-08-16 05:00:00 17.5 17.4 17.6 0 6894 12.36 11.9 12.88 100 12.3 11.9
2019-08-16 06:00:00 17.5 17.4 17.7 0 6914 12.95 12.79 13.05 100 12.9 12.7
2019-08-16 07:00:00 17.6 17.4 17.8 0 7304 14.16 12.8 15.4 100 14.1 12.8
2019-08-16 08:00:00 17.7 17.6 17.9 0 7324 15.74 15.33 16.42 100 15.7 15.3
2019-08-16 09:00:00 17.9 17.8 18.2 0 7324 17.52 16.56 19.16 97.75 17 16.5
2019-08-16 10:00:00 18.1 18 18.3 0 7324 19.6 18.67 20.54 81.5 16.1 15.3
2019-08-16 11:00:00 18.4 18.3 18.7 0 7314 20.98 19.96 21.82 72.89 15.7 15.2
2019-08-16 12:00:00 18.5 18.5 18.7 0 7314 21.94 21.12 22.72 63.7 14.5 13.7
2019-08-16 13:00:00 18.8 18.7 19 0 7314 22.93 22.22 23.55 60.18 14.6 13.6
2019-08-16 14:00:00 18.9 18.8 19.1 0 7314 23.2 22.7 23.64 58.35 14.3 13.8
2019-08-16 15:00:00 19 19 19.2 0 7314 23.9 22.71 24.75 56.46 14.5 13.8
2019-08-16 16:00:00 19 19 19.2 0 7206 23.81 22.96 24.27 55.62 14.2 13.4
2019-08-16 17:00:00 19 19 19.2 0 7304 23.26 22.52 24.23 56.3 13.9 13.1
2019-08-16 18:00:00 18.9 18.9 19.1 0 7304 22.46 21.72 24.12 57.14 13.4 12.8
2019-08-16 19:00:00 18.7 18.7 19 0 7050 21.14 19.61 22.13 61.12 13.1 12.8
2019-08-16 20:00:00 18.6 18.5 18.8 0 6962 18.44 17.46 19.4 70.2 12.7 12.4
2019-08-16 21:00:00 18.3 18.1 18.5 0 6962 16.23 15.12 17.65 78.6 12.3 12.1
2019-08-16 22:00:00 18 17.9 18.2 0 6932 14.51 13.72 15.26 87.83 12.3 12
2019-08-16 23:00:00 17.7 17.4 17.9 0 6922 14.41 13.66 15.33 88.95 12.4 12.2
2019-08-17 00:00:00 17.5 17.4 17.7 0 6922 13.17 12.65 13.53 97.75 12.7 12.3
2019-08-17 01:00:00 17.2 17 17.3 0 6904 12.73 11.91 13.81 99.22 12.5 11.9
2019-08-17 02:00:00 16.9 16.9 17.2 0 6914 11.18 10.59 11.61 100 11.1 10.5
2019-08-17 03:00:00 16.7 16.6 16.8 0 6894 10.25 9.89 11.06 100 10.1 9.8
2019-08-17 04:00:00 16.4 16.2 16.7 0 6894 9.88 9.3 10.81 100 9.8 9.3
2019-08-17 05:00:00 16.2 16 16.4 0 6884 9.38 8.91 9.79 100 9.3 8.9
2019-08-17 06:00:00 16 16 16.3 0 6952 9.6 8.77 10.8 100 9.5 8.7
2019-08-17 07:00:00 16 15.9 16.2 0 7324 11.78 10.74 13.6 100 11.7 10.7
2019-08-17 08:00:00 16.3 16.2 16.6 0 7324 15.93 14.38 17.2 92.47 14.5 13.7
2019-08-17 09:00:00 16.6 16.4 16.9 0 7324 18.55 17.07 19.84 80.25 14.9 14.4
2019-08-17 10:00:00 17.1 16.9 17.4 0 7314 20.7 19.86 21.67 73.16 15.5 14.9
2019-08-17 11:00:00 17.5 17.4 17.8 0 7304 22.54 21.68 23.42 65.02 15.4 15
2019-08-17 12:00:00 17.9 17.6 18 0 7324 23.25 21.72 24.76 59.9 14.8 13.9
2019-08-17 13:00:00 18.1 18 18.3 0 7304 23.21 22.21 24.27 58.23 14.3 13.6
2019-08-17 14:00:00 18.2 18.2 18.4 0 7294 23.17 22.77 24.59 59.35 14.6 14
2019-08-17 15:00:00 18.4 18.3 18.5 0 7294 23.93 23.12 24.71 55.53 14.2 13.2
2019-08-17 16:00:00 18.3 18.3 18.5 0 7304 23.26 22.89 23.58 53.98 13.2 12.7
2019-08-17 17:00:00 18.3 18.2 18.4 0 7206 23.27 23.16 23.44 55.19 13.6 13
2019-08-17 18:00:00 18.3 18.3 18.5 0 7176 23.45 22.84 24.22 56.31 14 13.3
2019-08-17 19:00:00 18.3 18.2 18.4 0 7060 21.35 20.32 22.71 60.15 13.1 12.9